sensor_id;sensor_type;location;lat;lon;timestamp;P1;durP1;ratioP1;P2;durP2;ratioP2
35518;SDS011;21627;48.216;16.482;2022-10-14T00:01:22;44.92;;;24.60;;
35518;SDS011;21627;48.216;16.482;2022-10-14T00:03:50;45.50;;;23.95;;
35518;SDS011;21627;48.216;16.482;2022-10-14T00:06:19;41.53;;;23.05;;
35518;SDS011;21627;48.216;16.482;2022-10-14T00:08:49;48.15;;;24.23;;
35518;SDS011;21627;48.216;16.482;2022-10-14T00:11:18;44.90;;;22.80;;
35518;SDS011;21627;48.216;16.482;2022-10-14T00:13:54;45.55;;;24.55;;
35518;SDS011;21627;48.216;16.482;2022-10-14T00:16:26;44.00;;;24.48;;
35518;SDS011;21627;48.216;16.482;2022-10-14T00:19:05;43.28;;;24.02;;
35518;SDS011;21627;48.216;16.482;2022-10-14T00:21:33;47.38;;;24.58;;
35518;SDS011;21627;48.216;16.482;2022-10-14T00:24:07;49.38;;;26.02;;
35518;SDS011;21627;48.216;16.482;2022-10-14T00:26:39;43.08;;;22.75;;
35518;SDS011;21627;48.216;16.482;2022-10-14T00:29:11;45.60;;;23.30;;
35518;SDS011;21627;48.216;16.482;2022-10-14T00:31:47;45.30;;;22.30;;
35518;SDS011;21627;48.216;16.482;2022-10-14T00:34:17;37.53;;;19.65;;
35518;SDS011;21627;48.216;16.482;2022-10-14T00:36:47;36.70;;;18.65;;
35518;SDS011;21627;48.216;16.482;2022-10-14T00:39:17;41.70;;;19.33;;
35518;SDS011;21627;48.216;16.482;2022-10-14T00:41:44;31.73;;;17.77;;
35518;SDS011;21627;48.216;16.482;2022-10-14T00:46:40;31.08;;;17.42;;
35518;SDS011;21627;48.216;16.482;2022-10-14T00:49:14;32.00;;;17.15;;
35518;SDS011;21627;48.216;16.482;2022-10-14T00:51:51;30.83;;;18.55;;
35518;SDS011;21627;48.216;16.482;2022-10-14T00:54:32;39.05;;;20.02;;
35518;SDS011;21627;48.216;16.482;2022-10-14T00:57:06;45.42;;;21.10;;
35518;SDS011;21627;48.216;16.482;2022-10-14T00:59:34;47.88;;;21.98;;
35518;SDS011;21627;48.216;16.482;2022-10-14T01:02:02;41.13;;;20.17;;
35518;SDS011;21627;48.216;16.482;2022-10-14T01:04:34;45.53;;;22.55;;
35518;SDS011;21627;48.216;16.482;2022-10-14T01:19:26;41.50;;;21.00;;
35518;SDS011;21627;48.216;16.482;2022-10-14T01:22:16;42.92;;;21.80;;
35518;SDS011;21627;48.216;16.482;2022-10-14T01:30:44;40.90;;;19.88;;
35518;SDS011;21627;48.216;16.482;2022-10-14T01:33:21;43.15;;;22.00;;
35518;SDS011;21627;48.216;16.482;2022-10-14T01:38:33;45.58;;;20.35;;
35518;SDS011;21627;48.216;16.482;2022-10-14T01:41:14;43.78;;;21.40;;
35518;SDS011;21627;48.216;16.482;2022-10-14T01:43:49;37.67;;;19.92;;
35518;SDS011;21627;48.216;16.482;2022-10-14T01:46:20;41.35;;;21.10;;
35518;SDS011;21627;48.216;16.482;2022-10-14T01:48:55;35.42;;;19.40;;
35518;SDS011;21627;48.216;16.482;2022-10-14T01:51:33;35.78;;;19.45;;
35518;SDS011;21627;48.216;16.482;2022-10-14T01:54:16;38.28;;;20.02;;
35518;SDS011;21627;48.216;16.482;2022-10-14T01:56:50;39.47;;;20.88;;
35518;SDS011;21627;48.216;16.482;2022-10-14T01:59:21;36.97;;;19.67;;
35518;SDS011;21627;48.216;16.482;2022-10-14T02:01:50;39.92;;;18.67;;
35518;SDS011;21627;48.216;16.482;2022-10-14T02:04:18;34.75;;;19.15;;
35518;SDS011;21627;48.216;16.482;2022-10-14T02:06:48;37.67;;;19.90;;
35518;SDS011;21627;48.216;16.482;2022-10-14T02:15:42;37.13;;;19.70;;
35518;SDS011;21627;48.216;16.482;2022-10-14T02:18:24;34.13;;;17.85;;
35518;SDS011;21627;48.216;16.482;2022-10-14T02:24:09;45.40;;;21.10;;
35518;SDS011;21627;48.216;16.482;2022-10-14T02:26:53;42.63;;;21.40;;
35518;SDS011;21627;48.216;16.482;2022-10-14T02:29:27;43.20;;;21.85;;
35518;SDS011;21627;48.216;16.482;2022-10-14T02:31:56;41.78;;;21.27;;
35518;SDS011;21627;48.216;16.482;2022-10-14T02:34:24;37.83;;;20.60;;
35518;SDS011;21627;48.216;16.482;2022-10-14T02:36:55;37.15;;;19.20;;
35518;SDS011;21627;48.216;16.482;2022-10-14T02:39:28;36.33;;;20.92;;
35518;SDS011;21627;48.216;16.482;2022-10-14T02:42:00;32.72;;;19.95;;
35518;SDS011;21627;48.216;16.482;2022-10-14T02:44:31;30.52;;;18.23;;
35518;SDS011;21627;48.216;16.482;2022-10-14T02:47:01;34.00;;;19.25;;
35518;SDS011;21627;48.216;16.482;2022-10-14T02:49:32;39.00;;;20.63;;
35518;SDS011;21627;48.216;16.482;2022-10-14T02:51:59;36.15;;;20.92;;
35518;SDS011;21627;48.216;16.482;2022-10-14T02:54:26;35.20;;;20.60;;
35518;SDS011;21627;48.216;16.482;2022-10-14T02:56:53;34.08;;;20.48;;
35518;SDS011;21627;48.216;16.482;2022-10-14T02:59:20;32.70;;;19.30;;
35518;SDS011;21627;48.216;16.482;2022-10-14T03:01:47;33.30;;;19.05;;
35518;SDS011;21627;48.216;16.482;2022-10-14T03:04:15;32.28;;;19.70;;
35518;SDS011;21627;48.216;16.482;2022-10-14T03:06:45;37.92;;;20.60;;
35518;SDS011;21627;48.216;16.482;2022-10-14T03:09:12;36.13;;;21.08;;
35518;SDS011;21627;48.216;16.482;2022-10-14T03:11:42;40.72;;;19.50;;
35518;SDS011;21627;48.216;16.482;2022-10-14T03:14:10;37.05;;;19.77;;
35518;SDS011;21627;48.216;16.482;2022-10-14T03:16:40;36.65;;;21.20;;
35518;SDS011;21627;48.216;16.482;2022-10-14T03:19:11;36.05;;;20.05;;
35518;SDS011;21627;48.216;16.482;2022-10-14T03:21:38;39.05;;;21.00;;
35518;SDS011;21627;48.216;16.482;2022-10-14T03:24:05;33.65;;;19.58;;
35518;SDS011;21627;48.216;16.482;2022-10-14T03:26:34;35.20;;;20.27;;
35518;SDS011;21627;48.216;16.482;2022-10-14T03:29:01;33.72;;;19.50;;
35518;SDS011;21627;48.216;16.482;2022-10-14T03:31:28;31.65;;;19.30;;
35518;SDS011;21627;48.216;16.482;2022-10-14T03:33:56;36.08;;;20.33;;
35518;SDS011;21627;48.216;16.482;2022-10-14T03:36:26;42.90;;;22.83;;
35518;SDS011;21627;48.216;16.482;2022-10-14T03:38:53;39.35;;;21.40;;
35518;SDS011;21627;48.216;16.482;2022-10-14T03:41:21;40.17;;;21.67;;
35518;SDS011;21627;48.216;16.482;2022-10-14T03:43:48;37.85;;;20.95;;
35518;SDS011;21627;48.216;16.482;2022-10-14T03:46:18;38.22;;;21.13;;
35518;SDS011;21627;48.216;16.482;2022-10-14T03:48:46;39.95;;;22.13;;
35518;SDS011;21627;48.216;16.482;2022-10-14T03:51:16;42.75;;;21.92;;
35518;SDS011;21627;48.216;16.482;2022-10-14T03:53:43;43.13;;;21.67;;
35518;SDS011;21627;48.216;16.482;2022-10-14T03:56:10;41.70;;;21.27;;
35518;SDS011;21627;48.216;16.482;2022-10-14T03:58:37;38.15;;;21.15;;
35518;SDS011;21627;48.216;16.482;2022-10-14T04:01:08;36.22;;;21.80;;
35518;SDS011;21627;48.216;16.482;2022-10-14T04:03:42;42.20;;;20.98;;
35518;SDS011;21627;48.216;16.482;2022-10-14T04:06:12;37.95;;;21.08;;
35518;SDS011;21627;48.216;16.482;2022-10-14T04:08:40;42.10;;;21.45;;
35518;SDS011;21627;48.216;16.482;2022-10-14T04:11:07;39.70;;;22.05;;
35518;SDS011;21627;48.216;16.482;2022-10-14T04:13:34;41.80;;;22.52;;
35518;SDS011;21627;48.216;16.482;2022-10-14T04:16:06;37.88;;;21.77;;
35518;SDS011;21627;48.216;16.482;2022-10-14T04:18:35;38.72;;;21.73;;
35518;SDS011;21627;48.216;16.482;2022-10-14T04:21:04;36.20;;;21.88;;
35518;SDS011;21627;48.216;16.482;2022-10-14T04:23:34;36.88;;;21.38;;
35518;SDS011;21627;48.216;16.482;2022-10-14T04:26:05;31.95;;;20.13;;
35518;SDS011;21627;48.216;16.482;2022-10-14T04:28:34;38.40;;;20.67;;
35518;SDS011;21627;48.216;16.482;2022-10-14T04:31:05;46.80;;;22.33;;
35518;SDS011;21627;48.216;16.482;2022-10-14T04:33:32;40.78;;;22.23;;
35518;SDS011;21627;48.216;16.482;2022-10-14T04:36:00;46.00;;;22.65;;
35518;SDS011;21627;48.216;16.482;2022-10-14T04:38:34;38.58;;;20.63;;
35518;SDS011;21627;48.216;16.482;2022-10-14T04:41:04;38.25;;;22.25;;
35518;SDS011;21627;48.216;16.482;2022-10-14T04:43:31;40.92;;;21.67;;
35518;SDS011;21627;48.216;16.482;2022-10-14T04:45:59;37.65;;;20.63;;
35518;SDS011;21627;48.216;16.482;2022-10-14T04:48:26;41.40;;;22.77;;
35518;SDS011;21627;48.216;16.482;2022-10-14T04:50:53;43.40;;;21.80;;
35518;SDS011;21627;48.216;16.482;2022-10-14T04:53:21;36.83;;;21.17;;
35518;SDS011;21627;48.216;16.482;2022-10-14T04:55:48;38.38;;;21.65;;
35518;SDS011;21627;48.216;16.482;2022-10-14T04:58:17;54.15;;;23.50;;
35518;SDS011;21627;48.216;16.482;2022-10-14T05:00:47;45.33;;;24.27;;
35518;SDS011;21627;48.216;16.482;2022-10-14T05:03:14;42.90;;;24.40;;
35518;SDS011;21627;48.216;16.482;2022-10-14T05:05:42;41.10;;;22.10;;
35518;SDS011;21627;48.216;16.482;2022-10-14T05:08:09;47.05;;;24.42;;
35518;SDS011;21627;48.216;16.482;2022-10-14T05:10:36;42.20;;;21.65;;
35518;SDS011;21627;48.216;16.482;2022-10-14T05:13:07;37.70;;;22.25;;
35518;SDS011;21627;48.216;16.482;2022-10-14T05:15:38;50.35;;;23.25;;
35518;SDS011;21627;48.216;16.482;2022-10-14T05:18:05;41.08;;;22.08;;
35518;SDS011;21627;48.216;16.482;2022-10-14T05:20:32;45.90;;;24.27;;
35518;SDS011;21627;48.216;16.482;2022-10-14T05:23:03;45.47;;;23.27;;
35518;SDS011;21627;48.216;16.482;2022-10-14T05:25:31;43.72;;;22.80;;
35518;SDS011;21627;48.216;16.482;2022-10-14T05:27:58;46.10;;;25.30;;
35518;SDS011;21627;48.216;16.482;2022-10-14T05:30:25;47.63;;;23.98;;
35518;SDS011;21627;48.216;16.482;2022-10-14T05:32:59;44.30;;;24.08;;
35518;SDS011;21627;48.216;16.482;2022-10-14T05:35:26;42.25;;;22.77;;
35518;SDS011;21627;48.216;16.482;2022-10-14T05:38:14;42.05;;;23.40;;
35518;SDS011;21627;48.216;16.482;2022-10-14T05:40:41;43.08;;;23.38;;
35518;SDS011;21627;48.216;16.482;2022-10-14T05:43:09;43.53;;;23.30;;
35518;SDS011;21627;48.216;16.482;2022-10-14T05:45:37;47.75;;;25.00;;
35518;SDS011;21627;48.216;16.482;2022-10-14T05:48:04;42.53;;;23.58;;
35518;SDS011;21627;48.216;16.482;2022-10-14T05:50:31;44.22;;;22.67;;
35518;SDS011;21627;48.216;16.482;2022-10-14T05:53:02;44.00;;;23.20;;
35518;SDS011;21627;48.216;16.482;2022-10-14T05:55:29;44.70;;;23.30;;
35518;SDS011;21627;48.216;16.482;2022-10-14T05:57:56;43.25;;;23.38;;
35518;SDS011;21627;48.216;16.482;2022-10-14T06:00:24;44.83;;;23.38;;
35518;SDS011;21627;48.216;16.482;2022-10-14T06:02:52;47.17;;;25.45;;
35518;SDS011;21627;48.216;16.482;2022-10-14T06:05:19;49.90;;;26.50;;
35518;SDS011;21627;48.216;16.482;2022-10-14T06:07:46;46.45;;;24.67;;
35518;SDS011;21627;48.216;16.482;2022-10-14T06:10:17;54.40;;;27.33;;
35518;SDS011;21627;48.216;16.482;2022-10-14T06:12:44;54.90;;;27.35;;
35518;SDS011;21627;48.216;16.482;2022-10-14T06:15:14;51.40;;;25.05;;
35518;SDS011;21627;48.216;16.482;2022-10-14T06:17:44;53.85;;;27.40;;
35518;SDS011;21627;48.216;16.482;2022-10-14T06:20:11;47.33;;;26.85;;
35518;SDS011;21627;48.216;16.482;2022-10-14T06:22:38;58.70;;;28.75;;
35518;SDS011;21627;48.216;16.482;2022-10-14T06:25:06;57.58;;;28.95;;
35518;SDS011;21627;48.216;16.482;2022-10-14T06:27:33;61.55;;;27.50;;
35518;SDS011;21627;48.216;16.482;2022-10-14T06:30:00;58.20;;;27.73;;
35518;SDS011;21627;48.216;16.482;2022-10-14T06:32:31;64.63;;;29.55;;
35518;SDS011;21627;48.216;16.482;2022-10-14T06:34:59;72.40;;;31.33;;
35518;SDS011;21627;48.216;16.482;2022-10-14T06:37:27;66.32;;;30.85;;
35518;SDS011;21627;48.216;16.482;2022-10-14T06:39:55;69.43;;;30.48;;
35518;SDS011;21627;48.216;16.482;2022-10-14T06:42:26;64.53;;;28.92;;
35518;SDS011;21627;48.216;16.482;2022-10-14T06:44:53;64.10;;;29.40;;
35518;SDS011;21627;48.216;16.482;2022-10-14T06:47:21;69.13;;;30.83;;
35518;SDS011;21627;48.216;16.482;2022-10-14T06:49:48;67.07;;;29.20;;
35518;SDS011;21627;48.216;16.482;2022-10-14T06:52:16;62.45;;;29.85;;
35518;SDS011;21627;48.216;16.482;2022-10-14T06:54:43;56.78;;;26.70;;
35518;SDS011;21627;48.216;16.482;2022-10-14T06:57:14;62.70;;;28.33;;
35518;SDS011;21627;48.216;16.482;2022-10-14T06:59:44;55.13;;;26.77;;
35518;SDS011;21627;48.216;16.482;2022-10-14T07:02:12;61.70;;;27.05;;
35518;SDS011;21627;48.216;16.482;2022-10-14T07:04:39;53.92;;;25.20;;
35518;SDS011;21627;48.216;16.482;2022-10-14T07:07:07;59.92;;;26.15;;
35518;SDS011;21627;48.216;16.482;2022-10-14T07:09:37;66.55;;;29.38;;
35518;SDS011;21627;48.216;16.482;2022-10-14T07:12:05;58.42;;;26.52;;
35518;SDS011;21627;48.216;16.482;2022-10-14T07:14:32;64.45;;;28.45;;
35518;SDS011;21627;48.216;16.482;2022-10-14T07:16:59;66.30;;;27.48;;
35518;SDS011;21627;48.216;16.482;2022-10-14T07:19:26;57.08;;;26.48;;
35518;SDS011;21627;48.216;16.482;2022-10-14T07:22:00;68.10;;;29.50;;
35518;SDS011;21627;48.216;16.482;2022-10-14T07:24:28;75.65;;;30.92;;
35518;SDS011;21627;48.216;16.482;2022-10-14T07:26:55;80.50;;;30.92;;
35518;SDS011;21627;48.216;16.482;2022-10-14T07:29:22;74.75;;;30.85;;
35518;SDS011;21627;48.216;16.482;2022-10-14T07:31:56;79.07;;;30.95;;
35518;SDS011;21627;48.216;16.482;2022-10-14T07:34:23;79.30;;;29.65;;
35518;SDS011;21627;48.216;16.482;2022-10-14T07:36:54;72.38;;;29.73;;
35518;SDS011;21627;48.216;16.482;2022-10-14T07:39:25;78.53;;;29.60;;
35518;SDS011;21627;48.216;16.482;2022-10-14T07:41:56;74.70;;;28.83;;
35518;SDS011;21627;48.216;16.482;2022-10-14T07:44:26;73.50;;;27.83;;
35518;SDS011;21627;48.216;16.482;2022-10-14T07:46:54;63.67;;;28.38;;
35518;SDS011;21627;48.216;16.482;2022-10-14T07:49:21;65.22;;;27.38;;
35518;SDS011;21627;48.216;16.482;2022-10-14T07:51:48;70.88;;;27.65;;
35518;SDS011;21627;48.216;16.482;2022-10-14T07:54:17;80.38;;;30.90;;
35518;SDS011;21627;48.216;16.482;2022-10-14T07:56:47;73.57;;;29.08;;
35518;SDS011;21627;48.216;16.482;2022-10-14T07:59:19;69.82;;;29.23;;
35518;SDS011;21627;48.216;16.482;2022-10-14T08:01:50;66.30;;;27.17;;
35518;SDS011;21627;48.216;16.482;2022-10-14T08:04:19;80.28;;;31.27;;
35518;SDS011;21627;48.216;16.482;2022-10-14T08:06:46;85.13;;;29.77;;
35518;SDS011;21627;48.216;16.482;2022-10-14T08:09:14;95.32;;;32.03;;
35518;SDS011;21627;48.216;16.482;2022-10-14T08:11:43;68.22;;;27.85;;
35518;SDS011;21627;48.216;16.482;2022-10-14T08:14:11;75.20;;;30.42;;
35518;SDS011;21627;48.216;16.482;2022-10-14T08:16:43;71.05;;;29.10;;
35518;SDS011;21627;48.216;16.482;2022-10-14T08:19:10;72.00;;;29.38;;
35518;SDS011;21627;48.216;16.482;2022-10-14T08:21:40;75.60;;;31.05;;
35518;SDS011;21627;48.216;16.482;2022-10-14T08:24:08;67.15;;;29.83;;
35518;SDS011;21627;48.216;16.482;2022-10-14T08:26:37;64.72;;;28.10;;
35518;SDS011;21627;48.216;16.482;2022-10-14T08:29:14;81.00;;;30.77;;
35518;SDS011;21627;48.216;16.482;2022-10-14T08:31:41;75.88;;;29.73;;
35518;SDS011;21627;48.216;16.482;2022-10-14T08:34:08;75.13;;;30.50;;
35518;SDS011;21627;48.216;16.482;2022-10-14T08:36:36;71.97;;;30.17;;
35518;SDS011;21627;48.216;16.482;2022-10-14T08:39:10;74.78;;;30.50;;
35518;SDS011;21627;48.216;16.482;2022-10-14T08:47:09;73.47;;;29.92;;
35518;SDS011;21627;48.216;16.482;2022-10-14T08:49:58;75.22;;;30.00;;
35518;SDS011;21627;48.216;16.482;2022-10-14T08:52:44;71.47;;;29.73;;
35518;SDS011;21627;48.216;16.482;2022-10-14T09:00:46;75.90;;;31.17;;
35518;SDS011;21627;48.216;16.482;2022-10-14T09:03:21;80.75;;;31.42;;
35518;SDS011;21627;48.216;16.482;2022-10-14T09:06:02;73.00;;;31.95;;
35518;SDS011;21627;48.216;16.482;2022-10-14T09:08:47;79.43;;;32.20;;
35518;SDS011;21627;48.216;16.482;2022-10-14T09:11:19;82.85;;;32.17;;
35518;SDS011;21627;48.216;16.482;2022-10-14T09:13:51;80.63;;;31.88;;
35518;SDS011;21627;48.216;16.482;2022-10-14T09:16:30;80.40;;;33.63;;
35518;SDS011;21627;48.216;16.482;2022-10-14T09:19:03;83.68;;;34.88;;
35518;SDS011;21627;48.216;16.482;2022-10-14T09:24:32;81.47;;;35.00;;
35518;SDS011;21627;48.216;16.482;2022-10-14T09:29:48;85.88;;;34.38;;
35518;SDS011;21627;48.216;16.482;2022-10-14T09:32:40;75.50;;;34.78;;
35518;SDS011;21627;48.216;16.482;2022-10-14T09:35:13;83.65;;;34.92;;
35518;SDS011;21627;48.216;16.482;2022-10-14T09:37:54;75.68;;;34.15;;
35518;SDS011;21627;48.216;16.482;2022-10-14T09:40:33;73.03;;;33.75;;
35518;SDS011;21627;48.216;16.482;2022-10-14T09:43:17;78.50;;;34.97;;
35518;SDS011;21627;48.216;16.482;2022-10-14T09:51:30;74.57;;;33.08;;
35518;SDS011;21627;48.216;16.482;2022-10-14T09:54:00;69.72;;;34.45;;
35518;SDS011;21627;48.216;16.482;2022-10-14T09:56:31;80.25;;;36.22;;
35518;SDS011;21627;48.216;16.482;2022-10-14T09:59:17;74.95;;;34.75;;
35518;SDS011;21627;48.216;16.482;2022-10-14T10:01:50;79.22;;;36.65;;
35518;SDS011;21627;48.216;16.482;2022-10-14T10:07:24;68.20;;;34.17;;
35518;SDS011;21627;48.216;16.482;2022-10-14T10:10:00;74.40;;;35.83;;
35518;SDS011;21627;48.216;16.482;2022-10-14T10:12:44;82.65;;;36.95;;
35518;SDS011;21627;48.216;16.482;2022-10-14T10:15:16;79.40;;;35.25;;
35518;SDS011;21627;48.216;16.482;2022-10-14T10:17:46;83.65;;;35.40;;
35518;SDS011;21627;48.216;16.482;2022-10-14T10:22:57;80.60;;;36.38;;
35518;SDS011;21627;48.216;16.482;2022-10-14T10:28:17;57.13;;;30.95;;
35518;SDS011;21627;48.216;16.482;2022-10-14T10:33:40;56.88;;;29.65;;
35518;SDS011;21627;48.216;16.482;2022-10-14T10:39:30;55.45;;;30.33;;
35518;SDS011;21627;48.216;16.482;2022-10-14T10:48:10;59.60;;;33.35;;
35518;SDS011;21627;48.216;16.482;2022-10-14T11:02:10;62.38;;;31.30;;
35518;SDS011;21627;48.216;16.482;2022-10-14T11:07:28;49.17;;;28.02;;
35518;SDS011;21627;48.216;16.482;2022-10-14T11:11:04;55.55;;;28.42;;
35518;SDS011;21627;48.216;16.482;2022-10-14T11:17:23;45.47;;;26.55;;
35518;SDS011;21627;48.216;16.482;2022-10-14T11:25:56;47.92;;;25.55;;
35518;SDS011;21627;48.216;16.482;2022-10-14T11:35:51;49.05;;;26.15;;
35518;SDS011;21627;48.216;16.482;2022-10-14T11:41:29;33.45;;;19.35;;
35518;SDS011;21627;48.216;16.482;2022-10-14T11:44:42;33.00;;;19.00;;
35518;SDS011;21627;48.216;16.482;2022-10-14T11:47:12;26.48;;;15.55;;
35518;SDS011;21627;48.216;16.482;2022-10-14T11:53:11;19.95;;;11.75;;
35518;SDS011;21627;48.216;16.482;2022-10-14T11:56:01;29.25;;;14.57;;
35518;SDS011;21627;48.216;16.482;2022-10-14T11:58:40;23.27;;;14.05;;
35518;SDS011;21627;48.216;16.482;2022-10-14T12:01:10;23.88;;;14.35;;
35518;SDS011;21627;48.216;16.482;2022-10-14T12:06:41;21.15;;;12.95;;
35518;SDS011;21627;48.216;16.482;2022-10-14T12:12:14;24.80;;;14.13;;
35518;SDS011;21627;48.216;16.482;2022-10-14T12:14:46;21.23;;;13.90;;
35518;SDS011;21627;48.216;16.482;2022-10-14T12:17:35;22.85;;;13.43;;
35518;SDS011;21627;48.216;16.482;2022-10-14T12:20:26;24.92;;;13.07;;
35518;SDS011;21627;48.216;16.482;2022-10-14T12:23:29;24.67;;;13.85;;
35518;SDS011;21627;48.216;16.482;2022-10-14T12:26:13;23.48;;;14.85;;
35518;SDS011;21627;48.216;16.482;2022-10-14T12:28:48;25.33;;;15.23;;
35518;SDS011;21627;48.216;16.482;2022-10-14T12:36:41;31.17;;;15.15;;
35518;SDS011;21627;48.216;16.482;2022-10-14T12:44:50;22.77;;;14.70;;
35518;SDS011;21627;48.216;16.482;2022-10-14T12:47:25;26.38;;;14.55;;
35518;SDS011;21627;48.216;16.482;2022-10-14T12:52:44;25.13;;;14.57;;
35518;SDS011;21627;48.216;16.482;2022-10-14T12:55:21;29.00;;;16.15;;
35518;SDS011;21627;48.216;16.482;2022-10-14T12:57:53;28.40;;;15.07;;
35518;SDS011;21627;48.216;16.482;2022-10-14T13:00:35;24.52;;;14.35;;
35518;SDS011;21627;48.216;16.482;2022-10-14T13:03:15;23.65;;;12.98;;
35518;SDS011;21627;48.216;16.482;2022-10-14T13:05:49;21.38;;;11.50;;
35518;SDS011;21627;48.216;16.482;2022-10-14T13:10:47;18.90;;;10.70;;
35518;SDS011;21627;48.216;16.482;2022-10-14T13:24:00;17.88;;;10.13;;
35518;SDS011;21627;48.216;16.482;2022-10-14T13:31:53;16.77;;;9.00;;
35518;SDS011;21627;48.216;16.482;2022-10-14T13:40:19;13.20;;;7.63;;
35518;SDS011;21627;48.216;16.482;2022-10-14T13:43:25;16.15;;;8.60;;
35518;SDS011;21627;48.216;16.482;2022-10-14T13:46:18;11.15;;;7.78;;
35518;SDS011;21627;48.216;16.482;2022-10-14T13:49:14;14.93;;;9.15;;
35518;SDS011;21627;48.216;16.482;2022-10-14T13:52:14;15.93;;;9.45;;
35518;SDS011;21627;48.216;16.482;2022-10-14T14:03:35;28.67;;;15.02;;
35518;SDS011;21627;48.216;16.482;2022-10-14T14:06:11;24.20;;;15.13;;
35518;SDS011;21627;48.216;16.482;2022-10-14T14:11:27;31.30;;;16.02;;
35518;SDS011;21627;48.216;16.482;2022-10-14T14:14:03;31.20;;;15.30;;
35518;SDS011;21627;48.216;16.482;2022-10-14T14:19:28;31.92;;;17.20;;
35518;SDS011;21627;48.216;16.482;2022-10-14T14:24:50;27.17;;;13.18;;
35518;SDS011;21627;48.216;16.482;2022-10-14T14:27:21;25.13;;;12.75;;
35518;SDS011;21627;48.216;16.482;2022-10-14T14:29:52;23.90;;;12.80;;
35518;SDS011;21627;48.216;16.482;2022-10-14T14:32:24;26.85;;;11.52;;
35518;SDS011;21627;48.216;16.482;2022-10-14T14:34:56;25.73;;;13.02;;
35518;SDS011;21627;48.216;16.482;2022-10-14T14:37:40;30.55;;;12.40;;
35518;SDS011;21627;48.216;16.482;2022-10-14T14:40:25;21.60;;;12.23;;
35518;SDS011;21627;48.216;16.482;2022-10-14T14:42:59;22.92;;;11.98;;
35518;SDS011;21627;48.216;16.482;2022-10-14T14:45:34;24.92;;;13.73;;
35518;SDS011;21627;48.216;16.482;2022-10-14T14:48:10;23.63;;;13.32;;
35518;SDS011;21627;48.216;16.482;2022-10-14T14:50:41;25.85;;;14.73;;
35518;SDS011;21627;48.216;16.482;2022-10-14T14:53:11;31.15;;;16.60;;
35518;SDS011;21627;48.216;16.482;2022-10-14T14:55:43;30.67;;;16.08;;
35518;SDS011;21627;48.216;16.482;2022-10-14T14:58:27;30.10;;;16.30;;
35518;SDS011;21627;48.216;16.482;2022-10-14T15:01:03;31.40;;;15.40;;
35518;SDS011;21627;48.216;16.482;2022-10-14T15:06:39;26.75;;;14.80;;
35518;SDS011;21627;48.216;16.482;2022-10-14T15:12:25;26.30;;;15.02;;
35518;SDS011;21627;48.216;16.482;2022-10-14T15:15:24;29.27;;;14.15;;
35518;SDS011;21627;48.216;16.482;2022-10-14T15:20:34;24.55;;;13.07;;
35518;SDS011;21627;48.216;16.482;2022-10-14T15:31:33;34.40;;;15.40;;
35518;SDS011;21627;48.216;16.482;2022-10-14T15:34:03;24.10;;;14.20;;
35518;SDS011;21627;48.216;16.482;2022-10-14T15:36:32;26.10;;;13.80;;
35518;SDS011;21627;48.216;16.482;2022-10-14T15:39:00;30.83;;;14.40;;
35518;SDS011;21627;48.216;16.482;2022-10-14T15:41:28;32.42;;;14.00;;
35518;SDS011;21627;48.216;16.482;2022-10-14T15:43:55;27.10;;;14.73;;
35518;SDS011;21627;48.216;16.482;2022-10-14T15:46:26;25.90;;;14.55;;
35518;SDS011;21627;48.216;16.482;2022-10-14T15:49:17;29.35;;;15.07;;
35518;SDS011;21627;48.216;16.482;2022-10-14T15:51:53;23.80;;;14.30;;
35518;SDS011;21627;48.216;16.482;2022-10-14T15:54:20;28.60;;;14.25;;
35518;SDS011;21627;48.216;16.482;2022-10-14T15:56:55;24.00;;;13.57;;
35518;SDS011;21627;48.216;16.482;2022-10-14T15:59:23;25.75;;;13.95;;
35518;SDS011;21627;48.216;16.482;2022-10-14T16:01:50;30.52;;;14.23;;
35518;SDS011;21627;48.216;16.482;2022-10-14T16:04:22;22.65;;;12.52;;
35518;SDS011;21627;48.216;16.482;2022-10-14T16:06:53;25.95;;;12.88;;
35518;SDS011;21627;48.216;16.482;2022-10-14T16:09:22;30.17;;;13.95;;
35518;SDS011;21627;48.216;16.482;2022-10-14T16:11:53;31.10;;;12.77;;
35518;SDS011;21627;48.216;16.482;2022-10-14T16:14:23;19.73;;;12.27;;
35518;SDS011;21627;48.216;16.482;2022-10-14T16:16:53;80.82;;;19.55;;
35518;SDS011;21627;48.216;16.482;2022-10-14T16:19:24;52.55;;;16.58;;
35518;SDS011;21627;48.216;16.482;2022-10-14T16:21:54;33.58;;;14.18;;
35518;SDS011;21627;48.216;16.482;2022-10-14T16:24:22;29.35;;;14.13;;
35518;SDS011;21627;48.216;16.482;2022-10-14T16:26:52;35.15;;;16.10;;
35518;SDS011;21627;48.216;16.482;2022-10-14T16:29:23;40.65;;;17.02;;
35518;SDS011;21627;48.216;16.482;2022-10-14T16:31:51;30.02;;;15.52;;
35518;SDS011;21627;48.216;16.482;2022-10-14T16:34:20;32.13;;;15.68;;
35518;SDS011;21627;48.216;16.482;2022-10-14T16:36:49;29.15;;;15.43;;
35518;SDS011;21627;48.216;16.482;2022-10-14T16:39:18;28.15;;;14.80;;
35518;SDS011;21627;48.216;16.482;2022-10-14T16:41:46;26.33;;;14.02;;
35518;SDS011;21627;48.216;16.482;2022-10-14T16:44:14;28.40;;;14.07;;
35518;SDS011;21627;48.216;16.482;2022-10-14T16:46:53;29.70;;;15.52;;
35518;SDS011;21627;48.216;16.482;2022-10-14T16:49:44;28.27;;;15.48;;
35518;SDS011;21627;48.216;16.482;2022-10-14T16:52:14;27.80;;;13.95;;
35518;SDS011;21627;48.216;16.482;2022-10-14T16:54:42;27.88;;;14.52;;
35518;SDS011;21627;48.216;16.482;2022-10-14T16:57:09;24.17;;;13.40;;
35518;SDS011;21627;48.216;16.482;2022-10-14T16:59:37;30.48;;;13.43;;
35518;SDS011;21627;48.216;16.482;2022-10-14T17:02:05;23.52;;;14.23;;
35518;SDS011;21627;48.216;16.482;2022-10-14T17:04:39;27.38;;;14.13;;
35518;SDS011;21627;48.216;16.482;2022-10-14T17:07:17;25.73;;;13.18;;
35518;SDS011;21627;48.216;16.482;2022-10-14T17:09:47;23.00;;;13.30;;
35518;SDS011;21627;48.216;16.482;2022-10-14T17:12:18;18.35;;;12.70;;
35518;SDS011;21627;48.216;16.482;2022-10-14T17:14:48;19.27;;;11.80;;
35518;SDS011;21627;48.216;16.482;2022-10-14T17:17:16;21.35;;;12.50;;
35518;SDS011;21627;48.216;16.482;2022-10-14T17:19:44;20.27;;;12.20;;
35518;SDS011;21627;48.216;16.482;2022-10-14T17:22:13;22.25;;;13.00;;
35518;SDS011;21627;48.216;16.482;2022-10-14T17:24:46;24.85;;;13.07;;
35518;SDS011;21627;48.216;16.482;2022-10-14T17:27:15;25.02;;;12.77;;
35518;SDS011;21627;48.216;16.482;2022-10-14T17:29:51;24.15;;;13.18;;
35518;SDS011;21627;48.216;16.482;2022-10-14T17:32:21;23.95;;;11.68;;
35518;SDS011;21627;48.216;16.482;2022-10-14T17:34:52;20.38;;;12.40;;
35518;SDS011;21627;48.216;16.482;2022-10-14T17:37:23;18.13;;;11.23;;
35518;SDS011;21627;48.216;16.482;2022-10-14T17:39:50;21.13;;;12.65;;
35518;SDS011;21627;48.216;16.482;2022-10-14T17:42:18;19.90;;;11.65;;
35518;SDS011;21627;48.216;16.482;2022-10-14T17:44:45;26.30;;;13.38;;
35518;SDS011;21627;48.216;16.482;2022-10-14T17:47:13;22.38;;;12.23;;
35518;SDS011;21627;48.216;16.482;2022-10-14T17:49:45;22.88;;;13.70;;